sensor_id;sensor_type;location;lat;lon;timestamp;P1;P2;P0
60058;PMS7003;45932;50.658;3.022;2022-12-29T00:02:12;0.00;0.00;0.00
60058;PMS7003;45932;50.658;3.022;2022-12-29T00:04:38;0.00;0.00;0.00
60058;PMS7003;45932;50.658;3.022;2022-12-29T00:07:03;1.00;1.00;1.00
60058;PMS7003;45932;50.658;3.022;2022-12-29T00:09:29;0.00;0.00;0.00
60058;PMS7003;45932;50.658;3.022;2022-12-29T00:11:55;0.67;0.67;0.00
60058;PMS7003;45932;50.658;3.022;2022-12-29T00:14:20;2.00;1.00;0.00
60058;PMS7003;45932;50.658;3.022;2022-12-29T00:17:04;0.00;0.00;0.00
60058;PMS7003;45932;50.658;3.022;2022-12-29T00:19:30;0.00;0.00;0.00
60058;PMS7003;45932;50.658;3.022;2022-12-29T00:22:14;1.33;0.00;0.00
60058;PMS7003;45932;50.658;3.022;2022-12-29T00:24:58;0.00;0.00;0.00
60058;PMS7003;45932;50.658;3.022;2022-12-29T00:27:30;0.00;0.00;0.00
60058;PMS7003;45932;50.658;3.022;2022-12-29T00:30:16;0.67;0.67;0.00
60058;PMS7003;45932;50.658;3.022;2022-12-29T00:33:08;0.00;0.00;0.00
60058;PMS7003;45932;50.658;3.022;2022-12-29T00:36:12;1.33;0.33;0.00
60058;PMS7003;45932;50.658;3.022;2022-12-29T00:38:50;1.00;1.00;0.00
60058;PMS7003;45932;50.658;3.022;2022-12-29T00:41:36;0.00;0.00;0.00
60058;PMS7003;45932;50.658;3.022;2022-12-29T00:44:20;1.00;0.00;0.00
60058;PMS7003;45932;50.658;3.022;2022-12-29T00:46:46;0.67;0.00;0.00
60058;PMS7003;45932;50.658;3.022;2022-12-29T00:49:11;1.00;1.00;0.00
60058;PMS7003;45932;50.658;3.022;2022-12-29T00:51:57;1.00;0.00;0.00
60058;PMS7003;45932;50.658;3.022;2022-12-29T00:54:28;0.67;0.67;0.33
60058;PMS7003;45932;50.658;3.022;2022-12-29T00:56:55;1.00;0.00;0.00
60058;PMS7003;45932;50.658;3.022;2022-12-29T00:59:21;1.67;1.67;0.00
60058;PMS7003;45932;50.658;3.022;2022-12-29T01:01:48;0.00;0.00;0.00
60058;PMS7003;45932;50.658;3.022;2022-12-29T01:04:14;1.00;1.00;0.00
60058;PMS7003;45932;50.658;3.022;2022-12-29T01:06:40;0.00;0.00;0.00
60058;PMS7003;45932;50.658;3.022;2022-12-29T01:09:06;1.33;1.00;0.67
60058;PMS7003;45932;50.658;3.022;2022-12-29T01:11:51;3.67;1.00;0.00
60058;PMS7003;45932;50.658;3.022;2022-12-29T01:14:17;1.00;1.00;0.00
60058;PMS7003;45932;50.658;3.022;2022-12-29T01:16:43;0.67;0.00;0.00
60058;PMS7003;45932;50.658;3.022;2022-12-29T01:19:09;1.33;1.33;0.67
60058;PMS7003;45932;50.658;3.022;2022-12-29T01:21:34;0.00;0.00;0.00
60058;PMS7003;45932;50.658;3.022;2022-12-29T01:23:59;2.67;1.00;0.00
60058;PMS7003;45932;50.658;3.022;2022-12-29T01:26:25;1.00;0.00;0.00
60058;PMS7003;45932;50.658;3.022;2022-12-29T01:28:50;1.00;1.00;0.00
60058;PMS7003;45932;50.658;3.022;2022-12-29T01:31:24;0.00;0.00;0.00
60058;PMS7003;45932;50.658;3.022;2022-12-29T01:33:49;3.00;0.00;0.00
60058;PMS7003;45932;50.658;3.022;2022-12-29T01:36:16;0.00;0.00;0.00
60058;PMS7003;45932;50.658;3.022;2022-12-29T01:38:42;0.00;0.00;0.00
60058;PMS7003;45932;50.658;3.022;2022-12-29T01:41:09;0.00;0.00;0.00
60058;PMS7003;45932;50.658;3.022;2022-12-29T01:46:30;0.00;0.00;0.00
60058;PMS7003;45932;50.658;3.022;2022-12-29T01:51:30;0.00;0.00;0.00
60058;PMS7003;45932;50.658;3.022;2022-12-29T01:53:58;0.00;0.00;0.00
60058;PMS7003;45932;50.658;3.022;2022-12-29T01:56:27;0.00;0.00;0.00
60058;PMS7003;45932;50.658;3.022;2022-12-29T01:58:54;0.00;0.00;0.00
60058;PMS7003;45932;50.658;3.022;2022-12-29T02:01:25;0.00;0.00;0.00
60058;PMS7003;45932;50.658;3.022;2022-12-29T02:03:50;1.00;0.00;0.00
60058;PMS7003;45932;50.658;3.022;2022-12-29T02:06:24;1.00;0.00;0.00
60058;PMS7003;45932;50.658;3.022;2022-12-29T02:08:53;2.33;1.00;0.00
60058;PMS7003;45932;50.658;3.022;2022-12-29T02:11:21;1.33;0.00;0.00
60058;PMS7003;45932;50.658;3.022;2022-12-29T02:13:49;1.00;1.00;0.00
60058;PMS7003;45932;50.658;3.022;2022-12-29T02:16:31;1.00;1.00;0.00
60058;PMS7003;45932;50.658;3.022;2022-12-29T02:30:06;0.00;0.00;0.00
60058;PMS7003;45932;50.658;3.022;2022-12-29T02:40:42;2.67;1.00;0.00
60058;PMS7003;45932;50.658;3.022;2022-12-29T02:43:34;0.00;0.00;0.00
60058;PMS7003;45932;50.658;3.022;2022-12-29T02:49:08;0.00;0.00;0.00
60058;PMS7003;45932;50.658;3.022;2022-12-29T02:51:58;0.00;0.00;0.00
60058;PMS7003;45932;50.658;3.022;2022-12-29T02:54:28;0.67;0.67;0.00
60058;PMS7003;45932;50.658;3.022;2022-12-29T02:59:52;1.00;1.00;0.00
60058;PMS7003;45932;50.658;3.022;2022-12-29T03:05:29;1.00;0.33;0.00
60058;PMS7003;45932;50.658;3.022;2022-12-29T03:13:57;1.67;0.33;0.00
60058;PMS7003;45932;50.658;3.022;2022-12-29T03:16:51;0.00;0.00;0.00
60058;PMS7003;45932;50.658;3.022;2022-12-29T03:19:24;2.00;1.00;0.00
60058;PMS7003;45932;50.658;3.022;2022-12-29T03:22:01;0.33;0.00;0.00
60058;PMS7003;45932;50.658;3.022;2022-12-29T03:24:48;1.00;0.00;0.00
60058;PMS7003;45932;50.658;3.022;2022-12-29T03:27:19;1.67;1.00;0.00
60058;PMS7003;45932;50.658;3.022;2022-12-29T03:29:50;1.67;0.00;0.00
60058;PMS7003;45932;50.658;3.022;2022-12-29T03:32:19;1.00;0.33;0.00
60058;PMS7003;45932;50.658;3.022;2022-12-29T03:34:48;3.00;1.00;0.00
60058;PMS7003;45932;50.658;3.022;2022-12-29T03:37:17;1.00;0.00;0.00
60058;PMS7003;45932;50.658;3.022;2022-12-29T03:39:48;2.00;0.00;0.00
60058;PMS7003;45932;50.658;3.022;2022-12-29T03:42:15;0.33;0.33;0.00
60058;PMS7003;45932;50.658;3.022;2022-12-29T03:44:44;3.00;0.00;0.00
60058;PMS7003;45932;50.658;3.022;2022-12-29T03:47:10;1.67;1.00;0.00
60058;PMS7003;45932;50.658;3.022;2022-12-29T03:49:37;1.00;1.00;0.00
60058;PMS7003;45932;50.658;3.022;2022-12-29T03:52:03;0.00;0.00;0.00
60058;PMS7003;45932;50.658;3.022;2022-12-29T03:54:29;2.00;0.00;0.00
60058;PMS7003;45932;50.658;3.022;2022-12-29T03:56:55;0.67;0.33;0.00
60058;PMS7003;45932;50.658;3.022;2022-12-29T03:59:20;1.00;1.00;0.00
60058;PMS7003;45932;50.658;3.022;2022-12-29T04:01:46;3.00;1.00;0.00
60058;PMS7003;45932;50.658;3.022;2022-12-29T04:04:11;1.67;1.67;0.00
60058;PMS7003;45932;50.658;3.022;2022-12-29T04:06:37;1.33;1.33;0.00
60058;PMS7003;45932;50.658;3.022;2022-12-29T04:09:02;2.00;1.00;0.00
60058;PMS7003;45932;50.658;3.022;2022-12-29T04:11:27;2.00;0.00;0.00
60058;PMS7003;45932;50.658;3.022;2022-12-29T04:13:53;0.67;0.67;0.00
60058;PMS7003;45932;50.658;3.022;2022-12-29T04:16:18;1.00;0.33;0.00
60058;PMS7003;45932;50.658;3.022;2022-12-29T04:18:43;0.33;0.00;0.00
60058;PMS7003;45932;50.658;3.022;2022-12-29T04:21:09;0.00;0.00;0.00
60058;PMS7003;45932;50.658;3.022;2022-12-29T04:23:35;1.33;0.00;0.00
60058;PMS7003;45932;50.658;3.022;2022-12-29T04:26:02;3.33;0.00;0.00
60058;PMS7003;45932;50.658;3.022;2022-12-29T04:28:28;0.00;0.00;0.00
60058;PMS7003;45932;50.658;3.022;2022-12-29T04:30:54;4.00;1.00;0.00
60058;PMS7003;45932;50.658;3.022;2022-12-29T04:33:19;1.67;0.00;0.00
60058;PMS7003;45932;50.658;3.022;2022-12-29T04:35:45;0.00;0.00;0.00
60058;PMS7003;45932;50.658;3.022;2022-12-29T04:38:11;1.00;1.00;0.00
60058;PMS7003;45932;50.658;3.022;2022-12-29T04:40:41;1.00;1.00;0.00
60058;PMS7003;45932;50.658;3.022;2022-12-29T04:43:08;0.67;0.67;0.00
60058;PMS7003;45932;50.658;3.022;2022-12-29T04:45:34;3.00;1.00;0.00
60058;PMS7003;45932;50.658;3.022;2022-12-29T04:47:59;1.00;1.00;0.00
60058;PMS7003;45932;50.658;3.022;2022-12-29T04:50:24;0.33;0.00;0.00
60058;PMS7003;45932;50.658;3.022;2022-12-29T04:52:50;1.00;0.67;0.00
60058;PMS7003;45932;50.658;3.022;2022-12-29T04:55:15;1.00;0.00;0.00
60058;PMS7003;45932;50.658;3.022;2022-12-29T04:57:41;2.00;1.00;0.00
60058;PMS7003;45932;50.658;3.022;2022-12-29T05:00:06;1.00;1.00;0.33
60058;PMS7003;45932;50.658;3.022;2022-12-29T05:02:34;0.67;0.67;0.00
60058;PMS7003;45932;50.658;3.022;2022-12-29T05:04:59;1.00;1.00;0.00
60058;PMS7003;45932;50.658;3.022;2022-12-29T05:07:25;1.00;1.00;0.33
60058;PMS7003;45932;50.658;3.022;2022-12-29T05:09:50;0.00;0.00;0.00
60058;PMS7003;45932;50.658;3.022;2022-12-29T05:12:15;2.00;1.00;0.00
60058;PMS7003;45932;50.658;3.022;2022-12-29T05:14:41;4.33;3.00;1.00
60058;PMS7003;45932;50.658;3.022;2022-12-29T05:17:06;2.00;0.00;0.00
60058;PMS7003;45932;50.658;3.022;2022-12-29T05:19:31;3.00;0.67;0.00
60058;PMS7003;45932;50.658;3.022;2022-12-29T05:21:56;2.00;1.67;0.67
60058;PMS7003;45932;50.658;3.022;2022-12-29T05:24:22;0.67;0.67;0.67
60058;PMS7003;45932;50.658;3.022;2022-12-29T05:26:47;0.67;0.00;0.00
60058;PMS7003;45932;50.658;3.022;2022-12-29T05:29:12;0.67;0.67;0.67
60058;PMS7003;45932;50.658;3.022;2022-12-29T05:31:38;4.67;2.00;0.00
60058;PMS7003;45932;50.658;3.022;2022-12-29T05:34:03;3.00;2.00;1.00
60058;PMS7003;45932;50.658;3.022;2022-12-29T05:36:29;3.00;1.00;0.00
60058;PMS7003;45932;50.658;3.022;2022-12-29T05:38:55;1.67;0.00;0.00
60058;PMS7003;45932;50.658;3.022;2022-12-29T05:41:20;1.00;1.00;0.00
60058;PMS7003;45932;50.658;3.022;2022-12-29T05:43:45;6.00;1.67;0.33
60058;PMS7003;45932;50.658;3.022;2022-12-29T05:46:11;0.67;0.67;0.00
60058;PMS7003;45932;50.658;3.022;2022-12-29T05:48:36;2.00;2.00;0.33
60058;PMS7003;45932;50.658;3.022;2022-12-29T05:51:01;0.67;0.67;0.00
60058;PMS7003;45932;50.658;3.022;2022-12-29T05:53:27;3.33;2.00;0.00
60058;PMS7003;45932;50.658;3.022;2022-12-29T05:55:52;2.00;1.00;0.00
60058;PMS7003;45932;50.658;3.022;2022-12-29T05:58:17;1.33;0.33;0.00
60058;PMS7003;45932;50.658;3.022;2022-12-29T06:00:43;1.33;1.00;0.67
60058;PMS7003;45932;50.658;3.022;2022-12-29T06:03:09;2.33;0.33;0.00
60058;PMS7003;45932;50.658;3.022;2022-12-29T06:05:34;0.67;0.33;0.00
60058;PMS7003;45932;50.658;3.022;2022-12-29T06:08:00;1.33;1.00;0.00
60058;PMS7003;45932;50.658;3.022;2022-12-29T06:10:25;4.33;1.33;0.33
60058;PMS7003;45932;50.658;3.022;2022-12-29T06:12:50;1.00;1.00;0.00
60058;PMS7003;45932;50.658;3.022;2022-12-29T06:15:16;1.00;1.00;0.00
60058;PMS7003;45932;50.658;3.022;2022-12-29T06:17:41;3.00;0.33;0.00
60058;PMS7003;45932;50.658;3.022;2022-12-29T06:20:07;0.00;0.00;0.00
60058;PMS7003;45932;50.658;3.022;2022-12-29T06:22:33;1.33;1.00;0.00
60058;PMS7003;45932;50.658;3.022;2022-12-29T06:24:59;0.00;0.00;0.00
60058;PMS7003;45932;50.658;3.022;2022-12-29T06:27:25;1.67;1.00;0.00
60058;PMS7003;45932;50.658;3.022;2022-12-29T06:29:50;4.00;1.00;0.00
60058;PMS7003;45932;50.658;3.022;2022-12-29T06:32:16;1.33;1.00;1.00
60058;PMS7003;45932;50.658;3.022;2022-12-29T06:34:41;2.00;1.00;0.00
60058;PMS7003;45932;50.658;3.022;2022-12-29T06:37:06;1.67;1.00;0.00
60058;PMS7003;45932;50.658;3.022;2022-12-29T06:39:32;1.00;1.00;0.00
60058;PMS7003;45932;50.658;3.022;2022-12-29T06:41:57;4.00;3.00;1.00
60058;PMS7003;45932;50.658;3.022;2022-12-29T06:44:22;1.00;1.00;0.00
60058;PMS7003;45932;50.658;3.022;2022-12-29T06:46:48;2.00;1.00;0.00
60058;PMS7003;45932;50.658;3.022;2022-12-29T06:49:14;1.67;0.00;0.00
60058;PMS7003;45932;50.658;3.022;2022-12-29T06:51:39;3.33;1.00;1.00
60058;PMS7003;45932;50.658;3.022;2022-12-29T06:54:04;3.00;1.67;0.00
60058;PMS7003;45932;50.658;3.022;2022-12-29T06:56:30;0.33;0.33;0.00
60058;PMS7003;45932;50.658;3.022;2022-12-29T06:58:55;4.33;1.00;0.67
60058;PMS7003;45932;50.658;3.022;2022-12-29T07:01:20;2.00;0.00;0.00
60058;PMS7003;45932;50.658;3.022;2022-12-29T07:03:46;2.67;1.00;0.33
60058;PMS7003;45932;50.658;3.022;2022-12-29T07:06:11;2.33;2.00;0.00
60058;PMS7003;45932;50.658;3.022;2022-12-29T07:08:37;1.00;1.00;0.00
60058;PMS7003;45932;50.658;3.022;2022-12-29T07:11:03;0.33;0.33;0.00
60058;PMS7003;45932;50.658;3.022;2022-12-29T07:13:29;2.00;1.00;0.67
60058;PMS7003;45932;50.658;3.022;2022-12-29T07:15:54;0.67;0.67;0.00
60058;PMS7003;45932;50.658;3.022;2022-12-29T07:18:20;5.00;1.00;0.00
60058;PMS7003;45932;50.658;3.022;2022-12-29T07:20:45;3.00;2.00;1.00
60058;PMS7003;45932;50.658;3.022;2022-12-29T07:23:10;4.33;1.00;1.00
60058;PMS7003;45932;50.658;3.022;2022-12-29T07:25:36;1.00;1.00;0.33
60058;PMS7003;45932;50.658;3.022;2022-12-29T07:28:02;1.00;1.00;1.00
60058;PMS7003;45932;50.658;3.022;2022-12-29T07:30:28;1.33;1.33;0.33
60058;PMS7003;45932;50.658;3.022;2022-12-29T07:32:53;3.00;0.67;0.00
60058;PMS7003;45932;50.658;3.022;2022-12-29T07:35:19;4.00;1.33;0.33
60058;PMS7003;45932;50.658;3.022;2022-12-29T07:37:44;2.00;2.00;1.00
60058;PMS7003;45932;50.658;3.022;2022-12-29T07:40:10;1.00;0.00;0.00
60058;PMS7003;45932;50.658;3.022;2022-12-29T07:42:35;3.00;1.00;0.00
60058;PMS7003;45932;50.658;3.022;2022-12-29T07:45:01;3.00;2.00;1.00
60058;PMS7003;45932;50.658;3.022;2022-12-29T07:47:26;5.00;1.00;1.00
60058;PMS7003;45932;50.658;3.022;2022-12-29T07:49:52;3.33;1.00;0.00
60058;PMS7003;45932;50.658;3.022;2022-12-29T07:52:17;2.67;1.00;1.00
60058;PMS7003;45932;50.658;3.022;2022-12-29T07:54:43;1.33;1.33;0.00
60058;PMS7003;45932;50.658;3.022;2022-12-29T07:57:08;1.00;1.00;0.33
60058;PMS7003;45932;50.658;3.022;2022-12-29T07:59:33;3.33;1.33;1.00
60058;PMS7003;45932;50.658;3.022;2022-12-29T08:01:59;2.00;2.00;1.00
60058;PMS7003;45932;50.658;3.022;2022-12-29T08:04:24;4.00;1.00;0.33
60058;PMS7003;45932;50.658;3.022;2022-12-29T08:06:49;4.00;1.00;0.00
60058;PMS7003;45932;50.658;3.022;2022-12-29T08:09:15;4.67;1.33;0.00
60058;PMS7003;45932;50.658;3.022;2022-12-29T08:11:40;4.67;1.67;0.00
60058;PMS7003;45932;50.658;3.022;2022-12-29T08:14:05;3.00;1.00;0.33
60058;PMS7003;45932;50.658;3.022;2022-12-29T08:16:31;5.33;3.00;0.33
60058;PMS7003;45932;50.658;3.022;2022-12-29T08:18:57;3.00;0.67;0.00
60058;PMS7003;45932;50.658;3.022;2022-12-29T08:21:22;1.33;1.33;1.00
60058;PMS7003;45932;50.658;3.022;2022-12-29T08:23:48;2.00;2.00;1.00
60058;PMS7003;45932;50.658;3.022;2022-12-29T08:26:13;2.00;2.00;0.67
60058;PMS7003;45932;50.658;3.022;2022-12-29T08:28:38;1.00;1.00;0.00
60058;PMS7003;45932;50.658;3.022;2022-12-29T08:31:04;3.00;2.33;1.00
60058;PMS7003;45932;50.658;3.022;2022-12-29T08:33:29;3.00;1.00;1.00
60058;PMS7003;45932;50.658;3.022;2022-12-29T08:36:02;5.00;2.67;0.67
60058;PMS7003;45932;50.658;3.022;2022-12-29T08:38:29;2.00;1.00;0.00
60058;PMS7003;45932;50.658;3.022;2022-12-29T08:40:55;1.00;1.00;0.00
60058;PMS7003;45932;50.658;3.022;2022-12-29T08:43:24;3.67;3.00;1.00
60058;PMS7003;45932;50.658;3.022;2022-12-29T08:45:50;4.00;2.00;1.00
60058;PMS7003;45932;50.658;3.022;2022-12-29T08:48:15;3.33;3.00;1.00
60058;PMS7003;45932;50.658;3.022;2022-12-29T08:50:44;7.67;2.67;1.00
60058;PMS7003;45932;50.658;3.022;2022-12-29T08:53:11;3.00;2.00;1.00
60058;PMS7003;45932;50.658;3.022;2022-12-29T08:55:36;2.00;1.00;0.00
60058;PMS7003;45932;50.658;3.022;2022-12-29T08:58:02;7.33;3.00;1.00
60058;PMS7003;45932;50.658;3.022;2022-12-29T09:00:27;3.67;1.00;0.00
60058;PMS7003;45932;50.658;3.022;2022-12-29T09:02:52;4.33;3.00;1.00
60058;PMS7003;45932;50.658;3.022;2022-12-29T09:05:18;1.33;1.00;0.67
60058;PMS7003;45932;50.658;3.022;2022-12-29T09:07:43;2.00;1.00;1.00
60058;PMS7003;45932;50.658;3.022;2022-12-29T09:10:08;3.67;2.00;1.00
60058;PMS7003;45932;50.658;3.022;2022-12-29T09:12:34;2.33;2.00;0.33
60058;PMS7003;45932;50.658;3.022;2022-12-29T09:14:59;3.67;3.67;2.67
60058;PMS7003;45932;50.658;3.022;2022-12-29T09:17:25;5.33;5.00;2.00
60058;PMS7003;45932;50.658;3.022;2022-12-29T09:20:09;9.33;8.67;5.67
60058;PMS7003;45932;50.658;3.022;2022-12-29T09:22:35;6.67;4.67;2.33
60058;PMS7003;45932;50.658;3.022;2022-12-29T09:25:01;4.00;3.67;2.33
60058;PMS7003;45932;50.658;3.022;2022-12-29T09:27:26;6.67;3.67;1.00
60058;PMS7003;45932;50.658;3.022;2022-12-29T09:29:52;4.67;2.67;1.00
60058;PMS7003;45932;50.658;3.022;2022-12-29T09:32:17;3.67;2.00;1.33
60058;PMS7003;45932;50.658;3.022;2022-12-29T09:34:42;3.67;1.00;1.00
60058;PMS7003;45932;50.658;3.022;2022-12-29T09:37:08;5.00;4.00;2.00
60058;PMS7003;45932;50.658;3.022;2022-12-29T09:39:33;2.00;2.00;1.33
60058;PMS7003;45932;50.658;3.022;2022-12-29T09:42:01;4.00;2.00;1.00
60058;PMS7003;45932;50.658;3.022;2022-12-29T09:47:55;3.33;1.33;1.00
60058;PMS7003;45932;50.658;3.022;2022-12-29T09:50:28;4.67;1.33;1.00
60058;PMS7003;45932;50.658;3.022;2022-12-29T09:53:11;1.00;1.00;0.67
60058;PMS7003;45932;50.658;3.022;2022-12-29T09:55:50;2.00;2.00;0.33
60058;PMS7003;45932;50.658;3.022;2022-12-29T09:58:29;6.00;2.00;1.00
60058;PMS7003;45932;50.658;3.022;2022-12-29T10:01:05;2.67;2.00;1.00
60058;PMS7003;45932;50.658;3.022;2022-12-29T10:03:53;6.00;2.67;0.67
60058;PMS7003;45932;50.658;3.022;2022-12-29T10:06:25;2.00;2.00;1.00
60058;PMS7003;45932;50.658;3.022;2022-12-29T10:14:33;2.33;2.33;0.67
60058;PMS7003;45932;50.658;3.022;2022-12-29T10:19:55;0.00;0.00;0.00
60058;PMS7003;45932;50.658;3.022;2022-12-29T10:25:01;1.67;1.67;0.33
60058;PMS7003;45932;50.658;3.022;2022-12-29T10:27:33;2.00;1.00;0.00
60058;PMS7003;45932;50.658;3.022;2022-12-29T10:30:01;2.67;2.00;0.67
60058;PMS7003;45932;50.658;3.022;2022-12-29T10:35:14;2.00;1.00;0.00
60058;PMS7003;45932;50.658;3.022;2022-12-29T10:40:49;2.33;1.67;0.67
60058;PMS7003;45932;50.658;3.022;2022-12-29T10:46:25;4.00;2.00;1.00
60058;PMS7003;45932;50.658;3.022;2022-12-29T10:48:44;4.00;3.00;1.00
60058;PMS7003;45932;50.658;3.022;2022-12-29T10:51:20;2.67;2.67;0.33
60058;PMS7003;45932;50.658;3.022;2022-12-29T10:56:33;1.33;1.33;1.00
60058;PMS7003;45932;50.658;3.022;2022-12-29T10:59:06;3.00;2.00;1.00
60058;PMS7003;45932;50.658;3.022;2022-12-29T11:01:58;5.33;3.00;2.00
60058;PMS7003;45932;50.658;3.022;2022-12-29T11:07:27;5.33;3.00;1.33
60058;PMS7003;45932;50.658;3.022;2022-12-29T11:09:55;2.33;1.00;0.00
60058;PMS7003;45932;50.658;3.022;2022-12-29T11:12:38;2.67;2.67;1.67
60058;PMS7003;45932;50.658;3.022;2022-12-29T11:17:56;2.00;1.00;0.00
60058;PMS7003;45932;50.658;3.022;2022-12-29T11:20:28;2.00;1.00;0.67
60058;PMS7003;45932;50.658;3.022;2022-12-29T11:22:56;4.33;4.00;3.00
60058;PMS7003;45932;50.658;3.022;2022-12-29T11:25:23;2.00;2.00;1.00
60058;PMS7003;45932;50.658;3.022;2022-12-29T11:27:58;4.67;1.00;1.00
60058;PMS7003;45932;50.658;3.022;2022-12-29T11:30:30;2.67;1.67;0.67
60058;PMS7003;45932;50.658;3.022;2022-12-29T11:32:57;1.00;1.00;0.67
60058;PMS7003;45932;50.658;3.022;2022-12-29T11:37:58;2.33;2.00;1.00
60058;PMS7003;45932;50.658;3.022;2022-12-29T11:40:23;1.00;0.67;0.00
60058;PMS7003;45932;50.658;3.022;2022-12-29T11:42:51;3.33;2.00;1.00
60058;PMS7003;45932;50.658;3.022;2022-12-29T11:45:32;2.00;1.00;0.00
60058;PMS7003;45932;50.658;3.022;2022-12-29T11:48:01;4.33;1.67;0.00
60058;PMS7003;45932;50.658;3.022;2022-12-29T11:50:34;0.67;0.67;0.00
60058;PMS7003;45932;50.658;3.022;2022-12-29T11:53:17;1.00;1.00;0.33
60058;PMS7003;45932;50.658;3.022;2022-12-29T11:55:59;0.67;0.67;0.00
60058;PMS7003;45932;50.658;3.022;2022-12-29T11:58:36;3.00;1.33;0.00
60058;PMS7003;45932;50.658;3.022;2022-12-29T12:03:38;1.00;1.00;0.33
60058;PMS7003;45932;50.658;3.022;2022-12-29T12:06:12;2.00;1.67;0.00
60058;PMS7003;45932;50.658;3.022;2022-12-29T12:08:45;1.33;1.33;0.00
60058;PMS7003;45932;50.658;3.022;2022-12-29T12:11:14;1.67;1.67;1.00
60058;PMS7003;45932;50.658;3.022;2022-12-29T12:13:58;5.67;1.00;0.00
60058;PMS7003;45932;50.658;3.022;2022-12-29T12:16:34;0.00;0.00;0.00
60058;PMS7003;45932;50.658;3.022;2022-12-29T12:19:49;2.00;0.00;0.00
60058;PMS7003;45932;50.658;3.022;2022-12-29T12:24:59;0.00;0.00;0.00
60058;PMS7003;45932;50.658;3.022;2022-12-29T12:27:39;0.33;0.33;0.00
60058;PMS7003;45932;50.658;3.022;2022-12-29T12:30:17;1.00;0.33;0.00
60058;PMS7003;45932;50.658;3.022;2022-12-29T12:32:46;1.00;1.00;0.00
60058;PMS7003;45932;50.658;3.022;2022-12-29T12:35:23;0.00;0.00;0.00
60058;PMS7003;45932;50.658;3.022;2022-12-29T12:41:00;1.00;1.00;0.00
60058;PMS7003;45932;50.658;3.022;2022-12-29T12:43:36;1.00;0.67;0.33
60058;PMS7003;45932;50.658;3.022;2022-12-29T12:51:33;2.00;2.00;1.00
60058;PMS7003;45932;50.658;3.022;2022-12-29T12:57:04;0.33;0.00;0.00
60058;PMS7003;45932;50.658;3.022;2022-12-29T13:00:00;1.00;1.00;0.00
60058;PMS7003;45932;50.658;3.022;2022-12-29T13:16:40;1.00;1.00;0.00
60058;PMS7003;45932;50.658;3.022;2022-12-29T13:27:37;2.00;0.67;0.00
60058;PMS7003;45932;50.658;3.022;2022-12-29T13:30:23;3.00;1.00;0.33
60058;PMS7003;45932;50.658;3.022;2022-12-29T13:41:04;1.33;0.00;0.00
60058;PMS7003;45932;50.658;3.022;2022-12-29T13:43:34;1.00;1.00;0.00
60058;PMS7003;45932;50.658;3.022;2022-12-29T13:46:07;0.00;0.00;0.00
60058;PMS7003;45932;50.658;3.022;2022-12-29T13:48:40;0.00;0.00;0.00
60058;PMS7003;45932;50.658;3.022;2022-12-29T13:51:12;0.33;0.00;0.00
60058;PMS7003;45932;50.658;3.022;2022-12-29T13:53:47;1.00;1.00;1.00
60058;PMS7003;45932;50.658;3.022;2022-12-29T13:56:18;2.67;2.00;0.67
60058;PMS7003;45932;50.658;3.022;2022-12-29T14:02:07;1.33;0.67;0.00
60058;PMS7003;45932;50.658;3.022;2022-12-29T14:04:54;3.67;0.33;0.00
60058;PMS7003;45932;50.658;3.022;2022-12-29T14:07:24;2.33;2.33;0.00
60058;PMS7003;45932;50.658;3.022;2022-12-29T14:09:51;1.67;1.67;0.00
60058;PMS7003;45932;50.658;3.022;2022-12-29T14:15:04;5.33;2.00;0.00
60058;PMS7003;45932;50.658;3.022;2022-12-29T14:17:32;4.67;2.00;1.00
60058;PMS7003;45932;50.658;3.022;2022-12-29T14:19:57;4.00;2.00;1.00
60058;PMS7003;45932;50.658;3.022;2022-12-29T14:22:24;1.00;1.00;0.33
60058;PMS7003;45932;50.658;3.022;2022-12-29T14:24:51;4.33;2.33;0.33
60058;PMS7003;45932;50.658;3.022;2022-12-29T14:29:42;1.67;1.00;0.00
60058;PMS7003;45932;50.658;3.022;2022-12-29T14:34:50;1.00;1.00;0.00
60058;PMS7003;45932;50.658;3.022;2022-12-29T14:37:29;1.00;1.00;0.00
60058;PMS7003;45932;50.658;3.022;2022-12-29T14:42:29;0.67;0.67;0.00
60058;PMS7003;45932;50.658;3.022;2022-12-29T14:45:06;1.00;1.00;0.33
60058;PMS7003;45932;50.658;3.022;2022-12-29T14:47:49;2.00;1.00;1.00
60058;PMS7003;45932;50.658;3.022;2022-12-29T14:53:01;2.33;1.00;1.00
60058;PMS7003;45932;50.658;3.022;2022-12-29T14:58:01;0.33;0.33;0.00
60058;PMS7003;45932;50.658;3.022;2022-12-29T15:00:33;2.00;1.00;1.00
60058;PMS7003;45932;50.658;3.022;2022-12-29T15:05:46;2.00;1.67;1.00
60058;PMS7003;45932;50.658;3.022;2022-12-29T15:08:36;5.33;1.33;1.00
60058;PMS7003;45932;50.658;3.022;2022-12-29T15:11:24;1.00;1.00;1.00
60058;PMS7003;45932;50.658;3.022;2022-12-29T15:14:26;2.00;2.00;1.00
60058;PMS7003;45932;50.658;3.022;2022-12-29T15:16:54;2.67;1.00;1.00
60058;PMS7003;45932;50.658;3.022;2022-12-29T15:19:23;3.00;1.00;0.33
60058;PMS7003;45932;50.658;3.022;2022-12-29T15:21:50;3.00;3.00;1.00
60058;PMS7003;45932;50.658;3.022;2022-12-29T15:24:17;4.00;2.67;1.00
60058;PMS7003;45932;50.658;3.022;2022-12-29T15:26:46;4.00;3.00;1.00
60058;PMS7003;45932;50.658;3.022;2022-12-29T15:29:30;5.67;2.67;1.00
60058;PMS7003;45932;50.658;3.022;2022-12-29T15:34:40;3.33;3.33;1.00
60058;PMS7003;45932;50.658;3.022;2022-12-29T15:37:07;10.00;2.33;1.00
60058;PMS7003;45932;50.658;3.022;2022-12-29T15:39:33;4.67;2.33;1.00
60058;PMS7003;45932;50.658;3.022;2022-12-29T15:42:05;4.67;4.00;2.00
60058;PMS7003;45932;50.658;3.022;2022-12-29T15:44:42;2.00;1.00;0.00
60058;PMS7003;45932;50.658;3.022;2022-12-29T15:47:25;3.00;2.00;1.00
60058;PMS7003;45932;50.658;3.022;2022-12-29T15:49:54;6.00;3.00;1.00
60058;PMS7003;45932;50.658;3.022;2022-12-29T15:52:43;3.33;1.00;0.00
60058;PMS7003;45932;50.658;3.022;2022-12-29T15:55:17;5.33;5.00;2.67
60058;PMS7003;45932;50.658;3.022;2022-12-29T15:57:45;4.67;3.00;1.00
60058;PMS7003;45932;50.658;3.022;2022-12-29T16:00:24;1.00;1.00;1.00
60058;PMS7003;45932;50.658;3.022;2022-12-29T16:02:50;3.00;2.67;1.00
60058;PMS7003;45932;50.658;3.022;2022-12-29T16:05:17;1.67;1.67;1.00
60058;PMS7003;45932;50.658;3.022;2022-12-29T16:07:56;5.33;2.00;0.00
60058;PMS7003;45932;50.658;3.022;2022-12-29T16:12:55;5.33;2.00;1.00
60058;PMS7003;45932;50.658;3.022;2022-12-29T16:15:28;3.33;2.33;1.33
60058;PMS7003;45932;50.658;3.022;2022-12-29T16:17:54;3.00;3.00;2.00
60058;PMS7003;45932;50.658;3.022;2022-12-29T16:20:41;4.00;3.00;1.00
60058;PMS7003;45932;50.658;3.022;2022-12-29T16:23:12;2.67;2.67;2.00
60058;PMS7003;45932;50.658;3.022;2022-12-29T16:25:45;3.67;3.67;2.00
60058;PMS7003;45932;50.658;3.022;2022-12-29T16:28:14;5.67;4.00;2.67
60058;PMS7003;45932;50.658;3.022;2022-12-29T16:30:47;4.67;4.67;2.00
60058;PMS7003;45932;50.658;3.022;2022-12-29T16:34:10;3.33;3.00;2.00
60058;PMS7003;45932;50.658;3.022;2022-12-29T16:36:26;5.00;4.00;3.00
60058;PMS7003;45932;50.658;3.022;2022-12-29T16:41:49;6.00;3.67;2.00
60058;PMS7003;45932;50.658;3.022;2022-12-29T16:44:19;5.00;3.00;2.00
60058;PMS7003;45932;50.658;3.022;2022-12-29T16:46:57;4.33;3.00;1.67
60058;PMS7003;45932;50.658;3.022;2022-12-29T16:49:41;5.00;3.00;1.00
60058;PMS7003;45932;50.658;3.022;2022-12-29T16:52:19;6.00;3.00;2.00
60058;PMS7003;45932;50.658;3.022;2022-12-29T16:54:57;5.67;3.00;1.00
60058;PMS7003;45932;50.658;3.022;2022-12-29T16:57:28;2.67;2.67;1.00
60058;PMS7003;45932;50.658;3.022;2022-12-29T17:00:00;4.33;3.00;1.00
60058;PMS7003;45932;50.658;3.022;2022-12-29T17:02:30;5.33;2.67;1.67
60058;PMS7003;45932;50.658;3.022;2022-12-29T17:04:58;4.00;1.00;0.00
60058;PMS7003;45932;50.658;3.022;2022-12-29T17:07:24;2.00;1.00;0.00
60058;PMS7003;45932;50.658;3.022;2022-12-29T17:09:51;2.00;2.00;0.00
60058;PMS7003;45932;50.658;3.022;2022-12-29T17:12:19;4.00;2.67;1.00